Terminal Aerodrome Forecast
Issued by NWS Knoxville/Tri Cities, TN

Home | Current Version | Previous Version | Text Only | Print | Product List | Glossary On
Versions: 1 2 3 4 5 6 7 8 9 10 11 12 13 14 15 16 17 18 19 20 21 22 23 24
000
FTUS44 KMRX 222325
TAFCHA
TAF
KCHA 222325Z 2300/2324 22006KT P6SM SCT060
     FM230400 VRB03KT P6SM SCT050 SCT150
     FM230800 27004KT P6SM VCTS SCT045CB BKN150
     FM231300 35006KT P6SM SCT030 BKN070
     FM231700 34008KT P6SM SCT045 SCT250=

USA.gov is the U.S. government's official web portal to all federal, state and local government web resources and services.